createdAt,value
2023-02-06T00:00:00.496Z,5
2023-02-06T00:05:00.469Z,5
2023-02-06T00:10:00.462Z,5
2023-02-06T00:15:00.461Z,5.1
2023-02-06T00:20:00.421Z,5.1
2023-02-06T00:25:00.472Z,5.1
2023-02-06T00:30:00.443Z,5
2023-02-06T00:35:00.483Z,5
2023-02-06T00:40:00.499Z,5
2023-02-06T00:45:00.552Z,5
2023-02-06T00:50:00.446Z,5
2023-02-06T00:55:00.547Z,5
2023-02-06T01:00:00.422Z,4.9
2023-02-06T01:05:00.432Z,4.9
2023-02-06T01:10:00.450Z,4.9
2023-02-06T01:15:00.483Z,4.9
2023-02-06T01:20:00.407Z,4.9
2023-02-06T01:25:00.445Z,4.9
2023-02-06T01:30:00.471Z,4.9
2023-02-06T01:35:00.477Z,4.9
2023-02-06T01:40:00.539Z,4.9
2023-02-06T01:45:00.507Z,4.9
2023-02-06T01:50:00.459Z,4.9
2023-02-06T01:55:00.433Z,5
2023-02-06T02:00:00.562Z,5
2023-02-06T02:05:00.558Z,4.9
2023-02-06T02:10:00.576Z,4.9
2023-02-06T02:15:00.482Z,4.9
2023-02-06T02:20:00.548Z,4.9
2023-02-06T02:25:00.468Z,4.9
2023-02-06T02:30:00.488Z,4.9
2023-02-06T02:35:00.544Z,4.9
2023-02-06T02:40:00.510Z,4.9
2023-02-06T02:45:00.487Z,4.9
2023-02-06T02:50:00.461Z,4.9
2023-02-06T02:55:00.498Z,4.9
2023-02-06T03:00:00.534Z,5
2023-02-06T03:05:00.570Z,5
2023-02-06T03:10:00.508Z,5
2023-02-06T03:15:00.434Z,4.9
2023-02-06T03:20:00.519Z,4.9
2023-02-06T03:25:00.435Z,4.9
2023-02-06T03:30:00.457Z,4.9
2023-02-06T03:35:00.474Z,4.9
2023-02-06T03:40:00.558Z,4.9
2023-02-06T03:45:00.415Z,4.8
2023-02-06T03:50:00.469Z,4.8
2023-02-06T03:55:00.497Z,4.8
2023-02-06T04:00:00.526Z,4.8
2023-02-06T04:05:00.488Z,4.8
2023-02-06T04:10:00.469Z,4.8
2023-02-06T04:15:00.456Z,4.7
2023-02-06T04:20:00.463Z,4.7
2023-02-06T04:25:00.441Z,4.7
2023-02-06T04:30:00.517Z,4.7
2023-02-06T04:35:00.436Z,4.7
2023-02-06T04:40:00.458Z,4.7
2023-02-06T04:45:00.486Z,4.7
2023-02-06T04:50:00.387Z,4.7
2023-02-06T04:55:00.508Z,4.7
2023-02-06T05:00:00.532Z,4.7
2023-02-06T05:05:00.457Z,4.7
2023-02-06T05:10:00.515Z,4.7
2023-02-06T05:15:00.427Z,4.7
2023-02-06T05:20:00.550Z,4.7
2023-02-06T05:25:00.485Z,4.7
2023-02-06T05:30:00.398Z,4.6
2023-02-06T05:35:00.469Z,4.7
2023-02-06T05:40:00.483Z,4.7
2023-02-06T05:45:00.547Z,4.7
2023-02-06T05:50:00.485Z,4.7
2023-02-06T05:55:00.462Z,4.7
2023-02-06T06:00:00.524Z,4.7
2023-02-06T06:05:00.603Z,4.7
2023-02-06T06:10:00.440Z,4.7
2023-02-06T06:15:00.442Z,4.7
2023-02-06T06:20:00.525Z,4.7
2023-02-06T06:25:00.488Z,4.7
2023-02-06T06:30:00.537Z,4.7
2023-02-06T06:35:00.439Z,4.7
2023-02-06T06:40:00.459Z,4.7
2023-02-06T06:45:00.588Z,4.7
2023-02-06T06:50:00.420Z,4.7
2023-02-06T06:55:00.456Z,4.7
2023-02-06T07:00:00.459Z,4.7
2023-02-06T07:05:00.611Z,4.7
2023-02-06T07:10:00.437Z,4.7
2023-02-06T07:15:00.421Z,4.7
2023-02-06T07:20:00.413Z,4.7
2023-02-06T07:25:00.429Z,4.8
2023-02-06T07:30:00.413Z,4.8
2023-02-06T07:35:00.406Z,4.7
2023-02-06T07:40:00.453Z,4.7
2023-02-06T07:45:00.473Z,4.7
2023-02-06T07:50:00.483Z,4.8
2023-02-06T07:55:00.466Z,4.8
2023-02-06T08:00:00.566Z,4.8
2023-02-06T08:05:00.460Z,4.8
2023-02-06T08:10:00.420Z,4.8
2023-02-06T08:15:00.444Z,4.8
2023-02-06T08:20:00.481Z,4.8
2023-02-06T08:25:00.409Z,4.8
2023-02-06T08:30:00.470Z,4.8
2023-02-06T08:35:00.397Z,4.8
2023-02-06T08:40:00.476Z,4.8
2023-02-06T08:45:00.445Z,4.8
2023-02-06T08:50:02.951Z,4.8
2023-02-06T08:55:00.437Z,4.9
2023-02-06T09:00:00.534Z,5
2023-02-06T09:05:00.493Z,4.8
2023-02-06T09:10:00.435Z,4.8
2023-02-06T09:15:00.459Z,4.7
2023-02-06T09:20:00.368Z,4.7
2023-02-06T09:25:00.387Z,4.6
2023-02-06T09:30:00.379Z,4.6
2023-02-06T09:35:00.442Z,4.6
2023-02-06T09:40:00.407Z,4.6
2023-02-06T09:45:00.443Z,4.7
2023-02-06T09:50:00.449Z,4.7
2023-02-06T09:55:00.436Z,4.7
2023-02-06T10:00:00.750Z,4.7
2023-02-06T10:05:00.417Z,4.7
2023-02-06T10:10:00.351Z,4.7
2023-02-06T10:15:00.416Z,4.7
2023-02-06T10:20:00.438Z,4.8
2023-02-06T10:25:00.508Z,4.7
2023-02-06T10:30:00.434Z,4.7
2023-02-06T10:35:00.502Z,4.8
2023-02-06T10:40:00.473Z,4.7
2023-02-06T10:45:13.356Z,4.8
2023-02-06T10:50:00.526Z,4.8
2023-02-06T10:55:00.443Z,4.8
2023-02-06T11:00:00.453Z,4.7
2023-02-06T11:05:00.430Z,4.8
2023-02-06T11:10:00.465Z,5
2023-02-06T11:15:00.504Z,5
2023-02-06T11:20:00.502Z,5
2023-02-06T11:25:00.554Z,4.8
2023-02-06T11:30:00.411Z,4.8
2023-02-06T11:35:00.463Z,4.7
2023-02-06T11:40:00.482Z,4.7
2023-02-06T11:45:00.451Z,4.7
2023-02-06T11:50:00.441Z,4.6
2023-02-06T11:55:00.471Z,4.6
2023-02-06T12:00:00.478Z,4.6
2023-02-06T12:05:00.473Z,4.7
2023-02-06T12:10:00.438Z,4.6
2023-02-06T12:15:02.905Z,4.6
2023-02-06T12:20:00.484Z,4.7
2023-02-06T12:25:00.465Z,4.7
2023-02-06T12:30:00.435Z,4.7
2023-02-06T12:35:00.410Z,4.8
2023-02-06T12:40:00.431Z,4.8
2023-02-06T12:45:00.423Z,4.8
2023-02-06T12:50:00.453Z,4.6
2023-02-06T12:55:00.420Z,4.6
2023-02-06T13:00:00.469Z,4.7
2023-02-06T13:05:00.482Z,4.6
2023-02-06T13:10:00.391Z,4.7
2023-02-06T13:15:00.419Z,4.7
2023-02-06T13:20:00.443Z,4.7
2023-02-06T13:25:00.550Z,4.8
2023-02-06T13:30:00.553Z,4.7
2023-02-06T13:35:00.458Z,4.7
2023-02-06T13:40:00.466Z,4.7
2023-02-06T13:45:00.452Z,4.6
2023-02-06T13:50:00.400Z,4.6
2023-02-06T13:55:00.407Z,4.6
2023-02-06T14:00:00.479Z,4.8
2023-02-06T14:05:00.449Z,4.7
2023-02-06T14:10:00.525Z,4.6
2023-02-06T14:15:00.429Z,4.5
2023-02-06T14:20:00.466Z,4.4
2023-02-06T14:25:00.389Z,4.4
2023-02-06T14:30:00.461Z,4.4
2023-02-06T14:35:00.492Z,4.3
2023-02-06T14:40:05.091Z,4.4
2023-02-06T14:45:00.471Z,4.3
2023-02-06T14:50:00.598Z,4.3
2023-02-06T14:55:00.380Z,4.3
2023-02-06T15:00:00.500Z,4.2
2023-02-06T15:05:00.447Z,4.2
2023-02-06T15:10:00.925Z,4.2
2023-02-06T15:15:00.426Z,4.1
2023-02-06T15:20:00.536Z,4.1
2023-02-06T15:25:00.436Z,4.1
2023-02-06T15:30:00.438Z,4.1
2023-02-06T15:35:00.476Z,4.1
2023-02-06T15:40:00.450Z,4
2023-02-06T15:45:00.479Z,4
2023-02-06T15:50:00.599Z,3.9
2023-02-06T15:55:00.416Z,3.9
2023-02-06T16:00:00.499Z,3.9
2023-02-06T16:05:00.455Z,3.9
2023-02-06T16:10:00.400Z,3.9
2023-02-06T16:15:00.494Z,3.9
2023-02-06T16:20:00.444Z,3.9
2023-02-06T16:25:00.382Z,3.9
2023-02-06T16:30:00.444Z,3.8
2023-02-06T16:35:00.387Z,3.9
2023-02-06T16:40:00.478Z,3.8
2023-02-06T16:45:00.420Z,3.9
2023-02-06T16:50:00.476Z,3.9
2023-02-06T16:55:00.421Z,3.9
2023-02-06T17:00:00.647Z,3.9
2023-02-06T17:05:00.497Z,3.9
2023-02-06T17:10:00.497Z,3.9
2023-02-06T17:15:00.533Z,3.9
2023-02-06T17:20:00.465Z,3.9
2023-02-06T17:25:00.479Z,3.9
2023-02-06T17:30:00.492Z,3.9
2023-02-06T17:35:00.427Z,3.9
2023-02-06T17:40:00.609Z,3.8
2023-02-06T17:45:00.476Z,3.8
2023-02-06T17:50:00.431Z,3.8
2023-02-06T17:55:00.405Z,3.8
2023-02-06T18:00:00.444Z,3.8
2023-02-06T18:05:00.387Z,3.8
2023-02-06T18:10:00.409Z,3.8
2023-02-06T18:15:00.461Z,3.7
2023-02-06T18:20:00.410Z,3.7
2023-02-06T18:25:00.439Z,3.7
2023-02-06T18:30:00.438Z,3.6
2023-02-06T18:35:00.578Z,3.6
2023-02-06T18:40:00.483Z,3.6
2023-02-06T18:45:02.083Z,3.6
2023-02-06T18:50:00.362Z,3.6
2023-02-06T18:55:00.444Z,3.6
2023-02-06T19:00:00.416Z,3.6
2023-02-06T19:05:00.409Z,3.6
2023-02-06T19:10:00.442Z,3.6
2023-02-06T19:15:00.462Z,3.6
2023-02-06T19:20:00.576Z,3.6
2023-02-06T19:25:00.459Z,3.6
2023-02-06T19:30:00.408Z,3.6
2023-02-06T19:35:00.454Z,3.6
2023-02-06T19:40:00.430Z,3.6
2023-02-06T19:45:00.469Z,3.6
2023-02-06T19:50:00.431Z,3.6
2023-02-06T19:55:00.441Z,3.7
2023-02-06T20:00:00.489Z,3.7
2023-02-06T20:05:02.512Z,3.7
2023-02-06T20:10:00.449Z,3.7
2023-02-06T20:15:00.452Z,3.7
2023-02-06T20:20:00.496Z,3.7
2023-02-06T20:25:00.504Z,3.7
2023-02-06T20:30:00.467Z,3.7
2023-02-06T20:35:00.484Z,3.8
2023-02-06T20:40:00.469Z,3.8
2023-02-06T20:45:00.460Z,3.8
2023-02-06T20:50:00.453Z,3.7
2023-02-06T20:55:00.456Z,3.7
2023-02-06T21:00:00.423Z,3.7
2023-02-06T21:05:00.447Z,3.6
2023-02-06T21:10:00.476Z,3.7
2023-02-06T21:15:00.695Z,3.7
2023-02-06T21:20:00.430Z,3.7
2023-02-06T21:25:00.501Z,3.6
2023-02-06T21:30:00.514Z,3.6
2023-02-06T21:35:00.432Z,3.6
2023-02-06T21:40:00.416Z,3.6
2023-02-06T21:45:00.457Z,3.6
2023-02-06T21:50:00.479Z,3.5
2023-02-06T21:55:00.468Z,3.6
2023-02-06T22:00:00.469Z,3.6
2023-02-06T22:05:00.433Z,3.6
2023-02-06T22:10:00.471Z,3.6
2023-02-06T22:15:00.517Z,3.5
2023-02-06T22:20:00.406Z,3.5
2023-02-06T22:25:00.591Z,3.5
2023-02-06T22:30:00.503Z,3.5
2023-02-06T22:35:00.471Z,3.5
2023-02-06T22:40:00.456Z,3.5
2023-02-06T22:45:00.426Z,3.5
2023-02-06T22:50:00.439Z,3.5
2023-02-06T22:55:00.410Z,3.5
2023-02-06T23:00:00.425Z,3.5
2023-02-06T23:05:00.355Z,3.5
2023-02-06T23:10:00.450Z,3.5
2023-02-06T23:15:00.432Z,3.5
2023-02-06T23:20:00.482Z,3.5
2023-02-06T23:25:00.456Z,3.5
2023-02-06T23:30:00.528Z,3.4
2023-02-06T23:35:00.403Z,3.5
2023-02-06T23:40:00.518Z,3.5
2023-02-06T23:45:00.419Z,3.4
2023-02-06T23:50:00.428Z,3.4
2023-02-06T23:55:00.444Z,3.4
